sensor_id;sensor_type;location;lat;lon;timestamp;P1;durP1;ratioP1;P2;durP2;ratioP2
58553;SDS011;48119;53.218;6.576;2023-07-31T00:00:29;4.25;;;2.58;;
58553;SDS011;48119;53.218;6.576;2023-07-31T00:02:55;4.43;;;2.70;;
58553;SDS011;48119;53.218;6.576;2023-07-31T00:05:21;3.75;;;2.53;;
58553;SDS011;48119;53.218;6.576;2023-07-31T00:07:46;3.70;;;2.38;;
58553;SDS011;48119;53.218;6.576;2023-07-31T00:10:12;4.10;;;3.03;;
58553;SDS011;48119;53.218;6.576;2023-07-31T00:12:42;4.75;;;2.83;;
58553;SDS011;48119;53.218;6.576;2023-07-31T00:15:09;4.45;;;2.22;;
58553;SDS011;48119;53.218;6.576;2023-07-31T00:17:35;3.20;;;2.58;;
58553;SDS011;48119;53.218;6.576;2023-07-31T00:20:02;5.28;;;2.65;;
58553;SDS011;48119;53.218;6.576;2023-07-31T00:22:28;4.47;;;2.33;;
58553;SDS011;48119;53.218;6.576;2023-07-31T00:24:53;5.50;;;2.35;;
58553;SDS011;48119;53.218;6.576;2023-07-31T00:27:19;3.63;;;2.47;;
58553;SDS011;48119;53.218;6.576;2023-07-31T00:29:45;4.10;;;2.50;;
58553;SDS011;48119;53.218;6.576;2023-07-31T00:32:11;3.83;;;1.95;;
58553;SDS011;48119;53.218;6.576;2023-07-31T00:34:37;2.72;;;1.70;;
58553;SDS011;48119;53.218;6.576;2023-07-31T00:37:02;2.70;;;1.77;;
58553;SDS011;48119;53.218;6.576;2023-07-31T00:39:29;2.67;;;1.88;;
58553;SDS011;48119;53.218;6.576;2023-07-31T00:41:55;4.22;;;1.80;;
58553;SDS011;48119;53.218;6.576;2023-07-31T00:44:21;2.35;;;1.80;;
58553;SDS011;48119;53.218;6.576;2023-07-31T00:46:47;3.47;;;1.88;;
58553;SDS011;48119;53.218;6.576;2023-07-31T00:49:13;2.17;;;1.40;;
58553;SDS011;48119;53.218;6.576;2023-07-31T00:51:40;2.42;;;1.42;;
58553;SDS011;48119;53.218;6.576;2023-07-31T00:54:06;3.50;;;1.90;;
58553;SDS011;48119;53.218;6.576;2023-07-31T00:56:32;4.93;;;1.73;;
58553;SDS011;48119;53.218;6.576;2023-07-31T00:58:57;3.00;;;1.50;;
58553;SDS011;48119;53.218;6.576;2023-07-31T01:01:23;2.47;;;1.80;;
58553;SDS011;48119;53.218;6.576;2023-07-31T01:03:50;3.83;;;1.80;;
58553;SDS011;48119;53.218;6.576;2023-07-31T01:11:33;3.20;;;2.00;;
58553;SDS011;48119;53.218;6.576;2023-07-31T01:14:03;1.77;;;1.42;;
58553;SDS011;48119;53.218;6.576;2023-07-31T01:16:29;3.75;;;1.95;;
58553;SDS011;48119;53.218;6.576;2023-07-31T01:18:55;2.97;;;1.90;;
58553;SDS011;48119;53.218;6.576;2023-07-31T01:25:11;1.63;;;1.08;;
58553;SDS011;48119;53.218;6.576;2023-07-31T01:27:06;3.05;;;1.35;;
58553;SDS011;48119;53.218;6.576;2023-07-31T01:29:47;1.83;;;1.33;;
58553;SDS011;48119;53.218;6.576;2023-07-31T01:32:36;2.42;;;1.02;;
58553;SDS011;48119;53.218;6.576;2023-07-31T01:35:05;3.20;;;1.52;;
58553;SDS011;48119;53.218;6.576;2023-07-31T01:37:32;2.72;;;1.30;;
58553;SDS011;48119;53.218;6.576;2023-07-31T01:39:58;3.92;;;1.52;;
58553;SDS011;48119;53.218;6.576;2023-07-31T01:42:23;3.15;;;1.63;;
58553;SDS011;48119;53.218;6.576;2023-07-31T01:44:49;2.13;;;1.42;;
58553;SDS011;48119;53.218;6.576;2023-07-31T01:47:15;3.22;;;1.48;;
58553;SDS011;48119;53.218;6.576;2023-07-31T01:49:41;2.33;;;1.50;;
58553;SDS011;48119;53.218;6.576;2023-07-31T01:52:06;2.30;;;1.50;;
58553;SDS011;48119;53.218;6.576;2023-07-31T01:54:32;2.88;;;1.83;;
58553;SDS011;48119;53.218;6.576;2023-07-31T01:56:58;1.60;;;1.27;;
58553;SDS011;48119;53.218;6.576;2023-07-31T01:59:24;3.38;;;1.70;;
58553;SDS011;48119;53.218;6.576;2023-07-31T02:01:50;2.35;;;1.40;;
58553;SDS011;48119;53.218;6.576;2023-07-31T02:04:15;2.28;;;1.35;;
58553;SDS011;48119;53.218;6.576;2023-07-31T02:06:41;1.52;;;0.95;;
58553;SDS011;48119;53.218;6.576;2023-07-31T02:09:08;1.85;;;1.23;;
58553;SDS011;48119;53.218;6.576;2023-07-31T02:11:34;1.88;;;1.38;;
58553;SDS011;48119;53.218;6.576;2023-07-31T02:13:59;4.13;;;1.15;;
58553;SDS011;48119;53.218;6.576;2023-07-31T02:16:25;1.80;;;1.00;;
58553;SDS011;48119;53.218;6.576;2023-07-31T02:18:51;1.58;;;1.00;;
58553;SDS011;48119;53.218;6.576;2023-07-31T02:21:16;1.23;;;0.77;;
58553;SDS011;48119;53.218;6.576;2023-07-31T02:23:42;2.20;;;0.93;;
58553;SDS011;48119;53.218;6.576;2023-07-31T02:26:08;1.98;;;0.98;;
58553;SDS011;48119;53.218;6.576;2023-07-31T02:28:34;1.13;;;0.80;;
58553;SDS011;48119;53.218;6.576;2023-07-31T02:30:59;2.53;;;0.93;;
58553;SDS011;48119;53.218;6.576;2023-07-31T02:33:25;1.48;;;0.68;;
58553;SDS011;48119;53.218;6.576;2023-07-31T02:35:51;2.13;;;0.68;;
58553;SDS011;48119;53.218;6.576;2023-07-31T02:38:16;1.05;;;0.75;;
58553;SDS011;48119;53.218;6.576;2023-07-31T02:40:42;2.03;;;0.60;;
58553;SDS011;48119;53.218;6.576;2023-07-31T02:43:08;0.98;;;0.75;;
58553;SDS011;48119;53.218;6.576;2023-07-31T02:45:34;1.23;;;0.60;;
58553;SDS011;48119;53.218;6.576;2023-07-31T02:48:00;1.42;;;0.80;;
58553;SDS011;48119;53.218;6.576;2023-07-31T02:50:26;1.73;;;0.90;;
58553;SDS011;48119;53.218;6.576;2023-07-31T02:52:52;2.45;;;0.70;;
58553;SDS011;48119;53.218;6.576;2023-07-31T02:55:18;1.70;;;0.98;;
58553;SDS011;48119;53.218;6.576;2023-07-31T02:57:44;2.00;;;0.93;;
58553;SDS011;48119;53.218;6.576;2023-07-31T03:00:10;1.55;;;0.70;;
58553;SDS011;48119;53.218;6.576;2023-07-31T03:02:36;1.02;;;0.57;;
58553;SDS011;48119;53.218;6.576;2023-07-31T03:05:02;1.77;;;0.80;;
58553;SDS011;48119;53.218;6.576;2023-07-31T03:07:28;2.90;;;0.80;;
58553;SDS011;48119;53.218;6.576;2023-07-31T03:09:55;1.15;;;0.75;;
58553;SDS011;48119;53.218;6.576;2023-07-31T03:12:21;1.58;;;0.82;;
58553;SDS011;48119;53.218;6.576;2023-07-31T03:14:47;2.35;;;0.60;;
58553;SDS011;48119;53.218;6.576;2023-07-31T03:17:13;3.63;;;1.10;;
58553;SDS011;48119;53.218;6.576;2023-07-31T03:19:38;2.90;;;0.90;;
58553;SDS011;48119;53.218;6.576;2023-07-31T03:22:04;1.38;;;0.90;;
58553;SDS011;48119;53.218;6.576;2023-07-31T03:24:30;1.67;;;0.60;;
58553;SDS011;48119;53.218;6.576;2023-07-31T03:26:56;2.05;;;0.88;;
58553;SDS011;48119;53.218;6.576;2023-07-31T03:29:21;1.70;;;1.00;;
58553;SDS011;48119;53.218;6.576;2023-07-31T03:31:47;1.85;;;0.70;;
58553;SDS011;48119;53.218;6.576;2023-07-31T03:34:13;1.17;;;0.70;;
58553;SDS011;48119;53.218;6.576;2023-07-31T03:36:39;1.65;;;0.70;;
58553;SDS011;48119;53.218;6.576;2023-07-31T03:39:04;0.90;;;0.68;;
58553;SDS011;48119;53.218;6.576;2023-07-31T03:41:30;1.80;;;0.95;;
58553;SDS011;48119;53.218;6.576;2023-07-31T03:43:56;2.63;;;0.75;;
58553;SDS011;48119;53.218;6.576;2023-07-31T03:46:22;1.15;;;0.77;;
58553;SDS011;48119;53.218;6.576;2023-07-31T03:48:48;1.48;;;0.82;;
58553;SDS011;48119;53.218;6.576;2023-07-31T03:51:14;1.20;;;0.57;;
58553;SDS011;48119;53.218;6.576;2023-07-31T03:53:39;0.68;;;0.65;;
58553;SDS011;48119;53.218;6.576;2023-07-31T03:56:05;3.88;;;1.00;;
58553;SDS011;48119;53.218;6.576;2023-07-31T03:58:31;1.02;;;0.68;;
58553;SDS011;48119;53.218;6.576;2023-07-31T04:00:57;3.08;;;0.80;;
58553;SDS011;48119;53.218;6.576;2023-07-31T04:03:22;0.80;;;0.60;;
58553;SDS011;48119;53.218;6.576;2023-07-31T04:05:48;3.42;;;1.00;;
58553;SDS011;48119;53.218;6.576;2023-07-31T04:08:14;2.03;;;0.70;;
58553;SDS011;48119;53.218;6.576;2023-07-31T04:10:40;1.15;;;0.60;;
58553;SDS011;48119;53.218;6.576;2023-07-31T04:13:05;2.65;;;0.80;;
58553;SDS011;48119;53.218;6.576;2023-07-31T04:15:31;2.42;;;1.02;;
58553;SDS011;48119;53.218;6.576;2023-07-31T04:17:57;1.92;;;0.80;;
58553;SDS011;48119;53.218;6.576;2023-07-31T04:20:22;1.48;;;0.80;;
58553;SDS011;48119;53.218;6.576;2023-07-31T04:22:48;2.55;;;0.60;;
58553;SDS011;48119;53.218;6.576;2023-07-31T04:25:14;1.52;;;0.73;;
58553;SDS011;48119;53.218;6.576;2023-07-31T04:27:40;0.60;;;0.52;;
58553;SDS011;48119;53.218;6.576;2023-07-31T04:30:06;1.42;;;0.77;;
58553;SDS011;48119;53.218;6.576;2023-07-31T04:32:32;3.55;;;0.98;;
58553;SDS011;48119;53.218;6.576;2023-07-31T04:35:01;1.95;;;0.80;;
58553;SDS011;48119;53.218;6.576;2023-07-31T04:37:27;1.75;;;0.85;;
58553;SDS011;48119;53.218;6.576;2023-07-31T04:39:53;1.55;;;0.82;;
58553;SDS011;48119;53.218;6.576;2023-07-31T04:42:21;1.55;;;0.85;;
58553;SDS011;48119;53.218;6.576;2023-07-31T04:44:47;4.28;;;0.70;;
58553;SDS011;48119;53.218;6.576;2023-07-31T04:47:13;1.38;;;0.80;;
58553;SDS011;48119;53.218;6.576;2023-07-31T04:49:39;1.42;;;0.60;;
58553;SDS011;48119;53.218;6.576;2023-07-31T04:52:04;1.13;;;0.70;;
58553;SDS011;48119;53.218;6.576;2023-07-31T04:54:30;1.00;;;0.57;;
58553;SDS011;48119;53.218;6.576;2023-07-31T04:56:56;0.55;;;0.45;;
58553;SDS011;48119;53.218;6.576;2023-07-31T04:59:22;0.73;;;0.50;;
58553;SDS011;48119;53.218;6.576;2023-07-31T05:01:48;1.67;;;0.98;;
58553;SDS011;48119;53.218;6.576;2023-07-31T05:04:13;1.02;;;0.60;;
58553;SDS011;48119;53.218;6.576;2023-07-31T05:06:40;0.60;;;0.40;;
58553;SDS011;48119;53.218;6.576;2023-07-31T05:09:06;1.10;;;0.65;;
58553;SDS011;48119;53.218;6.576;2023-07-31T05:11:35;0.47;;;0.45;;
58553;SDS011;48119;53.218;6.576;2023-07-31T05:14:01;0.68;;;0.40;;
58553;SDS011;48119;53.218;6.576;2023-07-31T05:16:26;0.60;;;0.40;;
58553;SDS011;48119;53.218;6.576;2023-07-31T05:18:52;0.88;;;0.50;;
58553;SDS011;48119;53.218;6.576;2023-07-31T05:21:18;1.83;;;0.65;;
58553;SDS011;48119;53.218;6.576;2023-07-31T05:23:43;0.47;;;0.47;;
58553;SDS011;48119;53.218;6.576;2023-07-31T05:26:09;0.75;;;0.63;;
58553;SDS011;48119;53.218;6.576;2023-07-31T05:28:35;1.55;;;0.40;;
58553;SDS011;48119;53.218;6.576;2023-07-31T05:31:02;1.58;;;0.50;;
58553;SDS011;48119;53.218;6.576;2023-07-31T05:33:29;0.80;;;0.43;;
58553;SDS011;48119;53.218;6.576;2023-07-31T05:35:54;0.47;;;0.45;;
58553;SDS011;48119;53.218;6.576;2023-07-31T05:38:20;0.60;;;0.40;;
58553;SDS011;48119;53.218;6.576;2023-07-31T05:40:46;2.78;;;0.60;;
58553;SDS011;48119;53.218;6.576;2023-07-31T05:43:12;1.17;;;0.60;;
58553;SDS011;48119;53.218;6.576;2023-07-31T05:45:39;1.88;;;0.57;;
58553;SDS011;48119;53.218;6.576;2023-07-31T05:48:05;1.25;;;0.68;;
58553;SDS011;48119;53.218;6.576;2023-07-31T05:50:31;2.97;;;0.50;;
58553;SDS011;48119;53.218;6.576;2023-07-31T05:52:57;2.47;;;0.85;;
58553;SDS011;48119;53.218;6.576;2023-07-31T05:55:23;0.85;;;0.68;;
58553;SDS011;48119;53.218;6.576;2023-07-31T05:57:52;1.83;;;0.73;;
58553;SDS011;48119;53.218;6.576;2023-07-31T06:00:18;1.00;;;0.52;;
58553;SDS011;48119;53.218;6.576;2023-07-31T06:02:44;2.53;;;0.50;;
58553;SDS011;48119;53.218;6.576;2023-07-31T06:05:09;1.60;;;0.95;;
58553;SDS011;48119;53.218;6.576;2023-07-31T06:07:35;1.52;;;0.75;;
58553;SDS011;48119;53.218;6.576;2023-07-31T06:10:01;2.70;;;0.90;;
58553;SDS011;48119;53.218;6.576;2023-07-31T06:12:38;2.20;;;1.05;;
58553;SDS011;48119;53.218;6.576;2023-07-31T06:15:04;3.75;;;1.10;;
58553;SDS011;48119;53.218;6.576;2023-07-31T06:17:30;1.75;;;0.98;;
58553;SDS011;48119;53.218;6.576;2023-07-31T06:19:56;2.13;;;1.17;;
58553;SDS011;48119;53.218;6.576;2023-07-31T06:22:22;2.38;;;1.00;;
58553;SDS011;48119;53.218;6.576;2023-07-31T06:24:48;2.88;;;1.10;;
58553;SDS011;48119;53.218;6.576;2023-07-31T06:27:14;5.57;;;1.88;;
58553;SDS011;48119;53.218;6.576;2023-07-31T06:29:40;2.95;;;1.58;;
58553;SDS011;48119;53.218;6.576;2023-07-31T06:32:06;2.42;;;1.33;;
58553;SDS011;48119;53.218;6.576;2023-07-31T06:34:32;3.75;;;2.05;;
58553;SDS011;48119;53.218;6.576;2023-07-31T06:36:58;4.97;;;1.95;;
58553;SDS011;48119;53.218;6.576;2023-07-31T06:39:23;8.07;;;2.72;;
58553;SDS011;48119;53.218;6.576;2023-07-31T06:41:49;6.88;;;2.80;;
58553;SDS011;48119;53.218;6.576;2023-07-31T06:44:15;12.27;;;3.63;;
58553;SDS011;48119;53.218;6.576;2023-07-31T06:46:41;5.10;;;3.00;;
58553;SDS011;48119;53.218;6.576;2023-07-31T06:49:07;14.52;;;4.18;;
58553;SDS011;48119;53.218;6.576;2023-07-31T06:51:33;11.25;;;4.28;;
58553;SDS011;48119;53.218;6.576;2023-07-31T06:54:00;10.68;;;4.18;;
58553;SDS011;48119;53.218;6.576;2023-07-31T06:56:26;17.13;;;6.03;;
58553;SDS011;48119;53.218;6.576;2023-07-31T06:58:52;15.25;;;5.03;;
58553;SDS011;48119;53.218;6.576;2023-07-31T07:01:18;14.15;;;5.30;;
58553;SDS011;48119;53.218;6.576;2023-07-31T07:03:44;18.17;;;5.57;;
58553;SDS011;48119;53.218;6.576;2023-07-31T07:06:10;13.85;;;5.78;;
58553;SDS011;48119;53.218;6.576;2023-07-31T07:08:35;14.02;;;5.07;;
58553;SDS011;48119;53.218;6.576;2023-07-31T07:11:01;13.57;;;4.93;;
58553;SDS011;48119;53.218;6.576;2023-07-31T07:13:27;16.88;;;5.50;;
58553;SDS011;48119;53.218;6.576;2023-07-31T07:15:52;14.45;;;5.28;;
58553;SDS011;48119;53.218;6.576;2023-07-31T07:18:18;11.80;;;5.88;;
58553;SDS011;48119;53.218;6.576;2023-07-31T07:20:49;14.13;;;5.13;;
58553;SDS011;48119;53.218;6.576;2023-07-31T07:23:15;15.85;;;5.45;;
58553;SDS011;48119;53.218;6.576;2023-07-31T07:25:42;11.05;;;4.93;;
58553;SDS011;48119;53.218;6.576;2023-07-31T07:28:08;12.60;;;6.30;;
58553;SDS011;48119;53.218;6.576;2023-07-31T07:30:35;15.40;;;5.95;;
58553;SDS011;48119;53.218;6.576;2023-07-31T07:33:01;11.45;;;4.38;;
58553;SDS011;48119;53.218;6.576;2023-07-31T07:35:29;8.43;;;4.82;;
58553;SDS011;48119;53.218;6.576;2023-07-31T07:37:55;16.63;;;5.30;;
58553;SDS011;48119;53.218;6.576;2023-07-31T07:40:21;15.68;;;5.82;;
58553;SDS011;48119;53.218;6.576;2023-07-31T07:42:47;12.77;;;5.40;;
58553;SDS011;48119;53.218;6.576;2023-07-31T07:45:13;14.90;;;5.95;;
58553;SDS011;48119;53.218;6.576;2023-07-31T07:47:40;18.25;;;5.40;;
58553;SDS011;48119;53.218;6.576;2023-07-31T07:50:06;11.48;;;5.35;;
58553;SDS011;48119;53.218;6.576;2023-07-31T07:52:33;12.18;;;5.10;;
58553;SDS011;48119;53.218;6.576;2023-07-31T07:54:58;9.82;;;4.15;;
58553;SDS011;48119;53.218;6.576;2023-07-31T07:57:25;9.02;;;3.45;;
58553;SDS011;48119;53.218;6.576;2023-07-31T07:59:51;8.20;;;2.42;;
58553;SDS011;48119;53.218;6.576;2023-07-31T08:02:19;5.60;;;2.60;;
58553;SDS011;48119;53.218;6.576;2023-07-31T08:04:45;2.78;;;1.45;;
58553;SDS011;48119;53.218;6.576;2023-07-31T08:07:11;6.85;;;2.05;;
58553;SDS011;48119;53.218;6.576;2023-07-31T08:09:39;3.53;;;1.27;;
58553;SDS011;48119;53.218;6.576;2023-07-31T08:12:06;3.20;;;1.42;;
58553;SDS011;48119;53.218;6.576;2023-07-31T08:14:32;1.00;;;0.73;;
58553;SDS011;48119;53.218;6.576;2023-07-31T08:16:58;4.68;;;1.25;;
58553;SDS011;48119;53.218;6.576;2023-07-31T08:19:24;3.08;;;1.23;;
58553;SDS011;48119;53.218;6.576;2023-07-31T08:21:52;1.85;;;1.00;;
58553;SDS011;48119;53.218;6.576;2023-07-31T08:26:51;2.58;;;1.52;;
58553;SDS011;48119;53.218;6.576;2023-07-31T08:29:19;2.45;;;1.20;;
58553;SDS011;48119;53.218;6.576;2023-07-31T08:31:45;2.40;;;1.08;;
58553;SDS011;48119;53.218;6.576;2023-07-31T08:34:13;1.30;;;0.90;;
58553;SDS011;48119;53.218;6.576;2023-07-31T08:36:41;1.98;;;1.08;;
58553;SDS011;48119;53.218;6.576;2023-07-31T08:39:09;2.85;;;1.20;;
58553;SDS011;48119;53.218;6.576;2023-07-31T08:41:38;1.85;;;1.20;;
58553;SDS011;48119;53.218;6.576;2023-07-31T08:44:04;1.23;;;0.80;;
58553;SDS011;48119;53.218;6.576;2023-07-31T08:46:32;3.53;;;1.15;;
58553;SDS011;48119;53.218;6.576;2023-07-31T08:49:08;1.48;;;1.13;;
58553;SDS011;48119;53.218;6.576;2023-07-31T08:51:35;1.83;;;0.93;;
58553;SDS011;48119;53.218;6.576;2023-07-31T08:54:02;1.70;;;0.77;;
58553;SDS011;48119;53.218;6.576;2023-07-31T08:56:31;1.75;;;0.80;;
58553;SDS011;48119;53.218;6.576;2023-07-31T08:58:58;2.15;;;0.90;;
58553;SDS011;48119;53.218;6.576;2023-07-31T09:01:26;2.58;;;0.80;;
58553;SDS011;48119;53.218;6.576;2023-07-31T09:03:54;0.82;;;0.60;;
58553;SDS011;48119;53.218;6.576;2023-07-31T09:06:24;1.33;;;0.88;;
58553;SDS011;48119;53.218;6.576;2023-07-31T09:08:52;1.23;;;0.80;;
58553;SDS011;48119;53.218;6.576;2023-07-31T09:11:18;1.45;;;0.77;;
58553;SDS011;48119;53.218;6.576;2023-07-31T09:13:45;1.73;;;0.60;;
58553;SDS011;48119;53.218;6.576;2023-07-31T09:16:11;1.10;;;0.68;;
58553;SDS011;48119;53.218;6.576;2023-07-31T09:18:56;2.15;;;0.95;;
58553;SDS011;48119;53.218;6.576;2023-07-31T09:21:22;1.27;;;0.80;;
58553;SDS011;48119;53.218;6.576;2023-07-31T09:23:49;1.85;;;0.77;;
58553;SDS011;48119;53.218;6.576;2023-07-31T09:26:31;2.08;;;0.65;;
58553;SDS011;48119;53.218;6.576;2023-07-31T09:28:59;1.90;;;0.88;;
58553;SDS011;48119;53.218;6.576;2023-07-31T09:34:05;0.57;;;0.55;;
58553;SDS011;48119;53.218;6.576;2023-07-31T09:36:41;2.40;;;0.88;;
58553;SDS011;48119;53.218;6.576;2023-07-31T09:39:11;0.80;;;0.60;;
58553;SDS011;48119;53.218;6.576;2023-07-31T09:41:47;1.25;;;0.68;;
58553;SDS011;48119;53.218;6.576;2023-07-31T09:46:46;1.13;;;0.60;;
58553;SDS011;48119;53.218;6.576;2023-07-31T09:49:13;2.92;;;0.60;;
58553;SDS011;48119;53.218;6.576;2023-07-31T09:51:42;1.83;;;0.70;;
58553;SDS011;48119;53.218;6.576;2023-07-31T09:54:14;2.40;;;1.02;;
58553;SDS011;48119;53.218;6.576;2023-07-31T09:56:45;1.10;;;0.50;;
58553;SDS011;48119;53.218;6.576;2023-07-31T09:59:14;0.50;;;0.40;;
58553;SDS011;48119;53.218;6.576;2023-07-31T10:01:42;0.30;;;0.28;;
58553;SDS011;48119;53.218;6.576;2023-07-31T10:04:09;0.98;;;0.60;;
58553;SDS011;48119;53.218;6.576;2023-07-31T10:06:37;1.08;;;0.60;;
58553;SDS011;48119;53.218;6.576;2023-07-31T10:09:07;0.75;;;0.50;;
58553;SDS011;48119;53.218;6.576;2023-07-31T10:11:43;1.98;;;0.73;;
58553;SDS011;48119;53.218;6.576;2023-07-31T10:14:19;2.03;;;0.93;;
58553;SDS011;48119;53.218;6.576;2023-07-31T10:16:46;1.67;;;0.95;;
58553;SDS011;48119;53.218;6.576;2023-07-31T10:19:13;1.20;;;0.70;;
58553;SDS011;48119;53.218;6.576;2023-07-31T10:21:39;1.27;;;1.02;;
58553;SDS011;48119;53.218;6.576;2023-07-31T10:24:07;1.45;;;0.88;;
58553;SDS011;48119;53.218;6.576;2023-07-31T10:26:34;1.02;;;0.40;;
58553;SDS011;48119;53.218;6.576;2023-07-31T10:29:05;0.82;;;0.70;;
58553;SDS011;48119;53.218;6.576;2023-07-31T10:31:32;1.08;;;0.60;;
58553;SDS011;48119;53.218;6.576;2023-07-31T10:33:59;1.13;;;0.50;;
58553;SDS011;48119;53.218;6.576;2023-07-31T10:36:26;1.35;;;0.93;;
58553;SDS011;48119;53.218;6.576;2023-07-31T10:38:52;2.80;;;1.42;;
58553;SDS011;48119;53.218;6.576;2023-07-31T10:41:18;0.45;;;0.40;;
58553;SDS011;48119;53.218;6.576;2023-07-31T10:43:47;2.80;;;1.40;;
58553;SDS011;48119;53.218;6.576;2023-07-31T10:46:13;1.20;;;0.65;;
58553;SDS011;48119;53.218;6.576;2023-07-31T10:48:40;0.60;;;0.50;;
58553;SDS011;48119;53.218;6.576;2023-07-31T10:51:07;1.75;;;0.80;;
58553;SDS011;48119;53.218;6.576;2023-07-31T10:53:37;2.83;;;1.58;;
58553;SDS011;48119;53.218;6.576;2023-07-31T10:56:04;2.95;;;1.85;;
58553;SDS011;48119;53.218;6.576;2023-07-31T10:58:31;1.08;;;0.68;;
58553;SDS011;48119;53.218;6.576;2023-07-31T11:00:59;3.30;;;2.00;;
58553;SDS011;48119;53.218;6.576;2023-07-31T11:03:45;1.23;;;0.80;;
58553;SDS011;48119;53.218;6.576;2023-07-31T11:06:18;1.40;;;0.70;;
58553;SDS011;48119;53.218;6.576;2023-07-31T11:08:48;2.03;;;1.13;;
58553;SDS011;48119;53.218;6.576;2023-07-31T11:11:15;2.03;;;1.10;;
58553;SDS011;48119;53.218;6.576;2023-07-31T11:13:51;2.15;;;1.17;;
58553;SDS011;48119;53.218;6.576;2023-07-31T11:16:22;3.05;;;0.90;;
58553;SDS011;48119;53.218;6.576;2023-07-31T11:18:50;2.25;;;1.10;;
58553;SDS011;48119;53.218;6.576;2023-07-31T11:21:23;1.48;;;0.88;;
58553;SDS011;48119;53.218;6.576;2023-07-31T11:23:53;0.98;;;0.70;;
58553;SDS011;48119;53.218;6.576;2023-07-31T11:26:24;1.90;;;1.00;;
58553;SDS011;48119;53.218;6.576;2023-07-31T11:28:50;3.00;;;0.98;;
58553;SDS011;48119;53.218;6.576;2023-07-31T11:31:16;1.98;;;1.13;;
58553;SDS011;48119;53.218;6.576;2023-07-31T11:33:43;2.55;;;1.10;;
58553;SDS011;48119;53.218;6.576;2023-07-31T11:36:19;2.28;;;0.73;;
58553;SDS011;48119;53.218;6.576;2023-07-31T11:38:46;2.30;;;1.55;;
58553;SDS011;48119;53.218;6.576;2023-07-31T11:41:13;2.35;;;1.17;;
58553;SDS011;48119;53.218;6.576;2023-07-31T11:43:40;2.47;;;1.45;;
58553;SDS011;48119;53.218;6.576;2023-07-31T11:46:06;2.30;;;0.77;;
58553;SDS011;48119;53.218;6.576;2023-07-31T11:48:35;3.47;;;1.52;;
58553;SDS011;48119;53.218;6.576;2023-07-31T11:51:02;2.63;;;1.50;;
58553;SDS011;48119;53.218;6.576;2023-07-31T11:56:10;1.55;;;1.27;;
58553;SDS011;48119;53.218;6.576;2023-07-31T11:58:38;3.50;;;1.17;;
58553;SDS011;48119;53.218;6.576;2023-07-31T12:01:05;2.78;;;1.90;;
58553;SDS011;48119;53.218;6.576;2023-07-31T12:03:31;2.22;;;1.10;;
58553;SDS011;48119;53.218;6.576;2023-07-31T12:05:59;1.45;;;0.80;;
58553;SDS011;48119;53.218;6.576;2023-07-31T12:08:25;2.88;;;1.52;;
58553;SDS011;48119;53.218;6.576;2023-07-31T12:10:51;2.25;;;1.25;;
58553;SDS011;48119;53.218;6.576;2023-07-31T12:15:48;3.97;;;1.85;;
58553;SDS011;48119;53.218;6.576;2023-07-31T12:18:19;2.53;;;1.65;;
58553;SDS011;48119;53.218;6.576;2023-07-31T12:20:46;2.20;;;1.45;;
58553;SDS011;48119;53.218;6.576;2023-07-31T12:25:40;2.92;;;1.35;;
58553;SDS011;48119;53.218;6.576;2023-07-31T12:28:06;3.53;;;1.67;;
58553;SDS011;48119;53.218;6.576;2023-07-31T12:30:37;3.20;;;1.85;;
58553;SDS011;48119;53.218;6.576;2023-07-31T12:33:12;4.13;;;2.28;;
58553;SDS011;48119;53.218;6.576;2023-07-31T12:35:46;1.83;;;1.20;;
58553;SDS011;48119;53.218;6.576;2023-07-31T12:38:12;2.53;;;1.65;;
58553;SDS011;48119;53.218;6.576;2023-07-31T12:40:40;2.35;;;1.33;;
58553;SDS011;48119;53.218;6.576;2023-07-31T12:43:07;1.73;;;1.25;;
58553;SDS011;48119;53.218;6.576;2023-07-31T12:45:34;3.03;;;1.75;;
58553;SDS011;48119;53.218;6.576;2023-07-31T12:48:00;4.50;;;2.10;;
58553;SDS011;48119;53.218;6.576;2023-07-31T12:50:26;7.25;;;1.90;;
58553;SDS011;48119;53.218;6.576;2023-07-31T12:52:56;2.55;;;1.38;;
58553;SDS011;48119;53.218;6.576;2023-07-31T12:55:22;3.55;;;1.40;;
58553;SDS011;48119;53.218;6.576;2023-07-31T12:57:49;2.78;;;1.48;;
58553;SDS011;48119;53.218;6.576;2023-07-31T13:00:15;2.92;;;1.70;;
58553;SDS011;48119;53.218;6.576;2023-07-31T13:02:41;2.88;;;1.90;;
58553;SDS011;48119;53.218;6.576;2023-07-31T13:05:07;6.75;;;2.10;;
58553;SDS011;48119;53.218;6.576;2023-07-31T13:07:33;6.68;;;2.30;;
58553;SDS011;48119;53.218;6.576;2023-07-31T13:09:59;4.68;;;2.38;;
58553;SDS011;48119;53.218;6.576;2023-07-31T13:12:24;4.57;;;2.28;;
58553;SDS011;48119;53.218;6.576;2023-07-31T13:14:53;4.82;;;2.42;;
58553;SDS011;48119;53.218;6.576;2023-07-31T13:17:21;6.88;;;3.13;;
58553;SDS011;48119;53.218;6.576;2023-07-31T13:19:47;3.92;;;2.35;;
58553;SDS011;48119;53.218;6.576;2023-07-31T13:22:12;9.15;;;3.05;;
58553;SDS011;48119;53.218;6.576;2023-07-31T13:24:38;9.77;;;2.92;;
58553;SDS011;48119;53.218;6.576;2023-07-31T13:27:04;4.75;;;2.20;;
58553;SDS011;48119;53.218;6.576;2023-07-31T13:29:30;8.05;;;2.47;;
58553;SDS011;48119;53.218;6.576;2023-07-31T13:31:57;6.60;;;2.72;;
58553;SDS011;48119;53.218;6.576;2023-07-31T13:34:23;8.73;;;3.25;;
58553;SDS011;48119;53.218;6.576;2023-07-31T13:36:48;7.60;;;3.03;;
58553;SDS011;48119;53.218;6.576;2023-07-31T13:39:14;8.15;;;2.80;;
58553;SDS011;48119;53.218;6.576;2023-07-31T13:41:40;7.38;;;3.08;;
58553;SDS011;48119;53.218;6.576;2023-07-31T13:44:06;6.57;;;2.78;;
58553;SDS011;48119;53.218;6.576;2023-07-31T13:46:32;10.10;;;3.25;;
58553;SDS011;48119;53.218;6.576;2023-07-31T13:48:58;6.50;;;2.80;;
58553;SDS011;48119;53.218;6.576;2023-07-31T13:51:25;8.38;;;3.03;;
58553;SDS011;48119;53.218;6.576;2023-07-31T13:53:53;7.43;;;2.97;;
58553;SDS011;48119;53.218;6.576;2023-07-31T13:56:19;5.45;;;2.60;;
58553;SDS011;48119;53.218;6.576;2023-07-31T13:58:45;8.60;;;3.13;;
58553;SDS011;48119;53.218;6.576;2023-07-31T14:01:11;7.65;;;2.72;;
58553;SDS011;48119;53.218;6.576;2023-07-31T14:03:36;9.32;;;3.72;;
58553;SDS011;48119;53.218;6.576;2023-07-31T14:06:02;10.50;;;3.67;;
58553;SDS011;48119;53.218;6.576;2023-07-31T14:08:29;8.73;;;3.95;;
58553;SDS011;48119;53.218;6.576;2023-07-31T14:10:55;6.65;;;3.58;;
58553;SDS011;48119;53.218;6.576;2023-07-31T14:13:21;7.18;;;3.65;;
58553;SDS011;48119;53.218;6.576;2023-07-31T14:15:47;5.45;;;3.20;;
58553;SDS011;48119;53.218;6.576;2023-07-31T14:18:13;13.95;;;3.35;;
58553;SDS011;48119;53.218;6.576;2023-07-31T14:20:39;8.90;;;3.72;;
58553;SDS011;48119;53.218;6.576;2023-07-31T14:23:05;5.28;;;2.58;;
58553;SDS011;48119;53.218;6.576;2023-07-31T14:25:31;6.85;;;3.05;;
58553;SDS011;48119;53.218;6.576;2023-07-31T14:27:56;4.60;;;2.80;;
58553;SDS011;48119;53.218;6.576;2023-07-31T14:30:22;7.90;;;3.13;;
58553;SDS011;48119;53.218;6.576;2023-07-31T14:32:48;9.52;;;3.42;;
58553;SDS011;48119;53.218;6.576;2023-07-31T14:35:14;7.82;;;3.00;;
58553;SDS011;48119;53.218;6.576;2023-07-31T14:37:42;7.65;;;3.20;;
58553;SDS011;48119;53.218;6.576;2023-07-31T14:40:10;8.35;;;3.10;;
58553;SDS011;48119;53.218;6.576;2023-07-31T14:42:38;5.88;;;2.88;;
58553;SDS011;48119;53.218;6.576;2023-07-31T14:45:04;5.95;;;2.70;;
58553;SDS011;48119;53.218;6.576;2023-07-31T14:47:31;6.75;;;2.88;;
58553;SDS011;48119;53.218;6.576;2023-07-31T14:49:57;6.97;;;3.35;;
58553;SDS011;48119;53.218;6.576;2023-07-31T14:52:24;8.23;;;3.00;;
58553;SDS011;48119;53.218;6.576;2023-07-31T14:54:58;8.25;;;3.55;;
58553;SDS011;48119;53.218;6.576;2023-07-31T14:57:24;11.02;;;3.35;;
58553;SDS011;48119;53.218;6.576;2023-07-31T14:59:52;5.82;;;3.35;;
58553;SDS011;48119;53.218;6.576;2023-07-31T15:02:19;9.20;;;3.50;;
58553;SDS011;48119;53.218;6.576;2023-07-31T15:04:45;9.63;;;3.88;;
58553;SDS011;48119;53.218;6.576;2023-07-31T15:07:10;7.95;;;3.80;;